»·PEaware :: N132EF KVNY-KSBP

N132EF :: KVNY-KSBP

FLIGHT INFORMATION

Flight Status: Arrived
Operator: Privately registered:
United States
More flights under this callsign
Pilot: Ron R. (25532)
Aircraft: BEECH AIRCRAFT DUKE
(BE60)
More flights by this aircraft type
Origin: KVNY Van Nuys
United States
Destination: KSBP San Luis Co Regl
United States
More flights between these airports :: More routes between these airports
Route: +FIM V186 RZS MQO
File this flight plan on PilotEdge
Remarks:
Altitude:
(Current/Filed)
8,000ft
Speed:
(Current/Filed)
210kts
Departed: 06-Sep-19 09:05 PM
Arrived: 06-Sep-19 10:00 PM
Distance/Time
Traveled:
123nm/0:54
Distance/Time
To Go:
Arrived

Flight Plot

Page will automatically refresh every two minutes.


Map Options




Map Legend


Flown Route
Filed Route
Departure Airport
Arrival Airport
Navaid (VOR, NDB)
Fix

Horizontal Profiles

Position Reports

Time Latitude Longitude Heading Altitude Ground
Speed
06-Sep-19 20:37 34.207758 -118.492189 87 805ft 0kts
06-Sep-19 20:38 34.207758 -118.492189 87 805ft 0kts
06-Sep-19 20:39 34.207758 -118.492189 87 805ft 0kts
06-Sep-19 20:40 34.207758 -118.492189 87 805ft 0kts
06-Sep-19 20:41 34.207758 -118.492186 87 805ft 0kts
06-Sep-19 20:42 34.207759 -118.492183 87 805ft 0kts
06-Sep-19 20:43 34.207759 -118.492181 87 805ft 0kts
06-Sep-19 20:44 34.207759 -118.492178 87 805ft 0kts
06-Sep-19 20:45 34.207759 -118.492175 87 805ft 0kts
06-Sep-19 20:46 34.207759 -118.492172 87 805ft 0kts
06-Sep-19 20:47 34.207759 -118.492169 87 805ft 0kts
06-Sep-19 20:48 34.207759 -118.492166 87 805ft 0kts
06-Sep-19 20:49 34.207759 -118.492163 87 805ft 0kts
06-Sep-19 20:50 34.207759 -118.492160 87 805ft 0kts
06-Sep-19 20:51 34.207759 -118.492157 87 805ft 0kts
06-Sep-19 20:52 34.207760 -118.492154 87 805ft 0kts
06-Sep-19 20:53 34.207760 -118.492151 87 805ft 0kts
06-Sep-19 20:54 34.208502 -118.491546 21 805ft 10kts
06-Sep-19 20:55 34.211522 -118.491638 355 805ft 11kts
06-Sep-19 20:56 34.215061 -118.491930 355 805ft 13kts
06-Sep-19 20:57 34.218276 -118.491951 161 805ft 3kts
06-Sep-19 20:58 34.218259 -118.491946 166 805ft 0kts
06-Sep-19 20:59 34.218256 -118.491945 166 805ft 0kts
06-Sep-19 21:00 34.218251 -118.491943 166 805ft 0kts
06-Sep-19 21:01 34.218021 -118.491793 85 805ft 0kts
06-Sep-19 21:02 34.218021 -118.491790 85 805ft 0kts
06-Sep-19 21:03 34.217677 -118.491129 174 805ft 6kts
06-Sep-19 21:04 34.199866 -118.489472 176 1079ft 146kts
06-Sep-19 21:05 34.167001 -118.462258 123 2876ft 156kts
06-Sep-19 21:06 34.144014 -118.417459 120 4504ft 160kts
06-Sep-19 21:07 34.121003 -118.371390 122 5896ft 167kts
06-Sep-19 21:08 34.093695 -118.316214 122 5997ft 206kts
06-Sep-19 21:09 34.063991 -118.256434 122 5988ft 208kts
06-Sep-19 21:10 34.048607 -118.193387 56 5986ft 207kts
06-Sep-19 21:11 34.091456 -118.199848 296 5996ft 186kts
06-Sep-19 21:12 34.114198 -118.258803 292 5992ft 204kts
06-Sep-19 21:13 34.137870 -118.322263 292 5995ft 206kts
06-Sep-19 21:14 34.149199 -118.386773 273 6922ft 195kts
06-Sep-19 21:15 34.151928 -118.453360 272 7971ft 206kts
06-Sep-19 21:16 34.154659 -118.523761 273 7998ft 212kts
06-Sep-19 21:17 34.157403 -118.595368 273 7996ft 213kts
06-Sep-19 21:18 34.160135 -118.667065 273 7995ft 214kts
06-Sep-19 21:19 34.162847 -118.738874 273 7994ft 214kts
06-Sep-19 21:20 34.165547 -118.810739 273 7992ft 215kts
06-Sep-19 21:21 34.168251 -118.882874 273 7990ft 215kts
06-Sep-19 21:22 34.170918 -118.955118 273 7988ft 215kts
06-Sep-19 21:24 34.174060 -119.039812 273 7987ft 216kts
06-Sep-19 21:24 34.176291 -119.100360 273 7987ft 216kts
06-Sep-19 21:25 34.178939 -119.172954 273 7987ft 216kts
06-Sep-19 21:26 34.192298 -119.241616 307 7994ft 216kts
06-Sep-19 21:27 34.229256 -119.298925 306 7990ft 216kts
06-Sep-19 21:28 34.264650 -119.357533 305 8013ft 216kts
06-Sep-19 21:29 34.299894 -119.416794 305 8017ft 217kts
06-Sep-19 21:30 34.335155 -119.476121 305 8018ft 217kts
06-Sep-19 21:31 34.370402 -119.535505 305 8014ft 217kts
06-Sep-19 21:32 34.405632 -119.594963 305 8007ft 217kts
06-Sep-19 21:33 34.440834 -119.654473 305 8006ft 217kts
06-Sep-19 21:34 34.476096 -119.714186 305 8004ft 217kts
06-Sep-19 21:35 34.511412 -119.773671 308 8001ft 217kts
06-Sep-19 21:36 34.552505 -119.827375 312 8011ft 217kts
06-Sep-19 21:37 34.593440 -119.881152 312 8035ft 217kts
06-Sep-19 21:38 34.634293 -119.934990 312 8060ft 217kts
06-Sep-19 21:39 34.675318 -119.989118 312 8073ft 217kts
06-Sep-19 21:40 34.716284 -120.043247 312 8075ft 218kts
06-Sep-19 21:41 34.757317 -120.097553 312 8087ft 218kts
06-Sep-19 21:42 34.798358 -120.151955 312 8089ft 218kts
06-Sep-19 21:43 34.839372 -120.206409 312 8091ft 218kts
06-Sep-19 21:44 34.880341 -120.260927 312 8093ft 218kts
06-Sep-19 21:45 34.921439 -120.315680 312 8093ft 218kts
06-Sep-19 21:46 34.962503 -120.370463 312 8094ft 219kts
06-Sep-19 21:47 35.003612 -120.425393 312 8094ft 219kts
06-Sep-19 21:48 35.044719 -120.480409 312 8093ft 219kts
06-Sep-19 21:49 35.085810 -120.535492 312 8091ft 219kts
06-Sep-19 21:50 35.126993 -120.590789 312 8088ft 219kts
06-Sep-19 21:51 35.168014 -120.645959 312 8086ft 219kts
06-Sep-19 21:52 35.209332 -120.700871 312 8086ft 219kts
06-Sep-19 21:53 35.240240 -120.756599 263 6780ft 189kts
06-Sep-19 21:54 35.201585 -120.764618 118 5387ft 185kts
06-Sep-19 21:55 35.186783 -120.705117 103 4170ft 174kts
06-Sep-19 21:56 35.173699 -120.647453 96 2928ft 172kts
06-Sep-19 21:57 35.197386 -120.612998 27 1794ft 134kts
06-Sep-19 21:58 35.227147 -120.623255 307 495ft 115kts
06-Sep-19 21:59 35.239294 -120.644210 328 215ft 15kts
06-Sep-19 22:00 35.239794 -120.644228 36 215ft 0kts
06-Sep-19 22:01 35.238996 -120.642077 124 215ft 13kts
06-Sep-19 22:02 35.238273 -120.639195 90 215ft 0kts
06-Sep-19 22:03 35.238273 -120.639193 90 215ft 0kts

Navigation Log

Ident Type
Flight plan parsing failed, navigation log unavailable